createdAt,value
2023-01-05T00:01:09.912Z,100689.38
2023-01-05T00:03:37.291Z,100689.97
2023-01-05T00:06:15.687Z,100680.63
2023-01-05T00:08:42.448Z,100692.53
2023-01-05T00:11:42.513Z,100696.16
2023-01-05T00:14:33.514Z,100690.28
2023-01-05T00:17:18.817Z,100690.28
2023-01-05T00:20:04.613Z,100685.94
2023-01-05T00:22:32.310Z,100684.28
2023-01-05T00:25:15.039Z,100680.00
2023-01-05T00:27:43.396Z,100695.09
2023-01-05T00:30:13.002Z,100683.38
2023-01-05T00:32:41.342Z,100696.34
2023-01-05T00:35:08.555Z,100708.41
2023-01-05T00:37:36.540Z,100709.28
2023-01-05T00:40:03.842Z,100687.22
2023-01-05T00:42:30.640Z,100687.41
2023-01-05T00:44:57.241Z,100697.78
2023-01-05T00:47:23.838Z,100694.19
2023-01-05T00:49:50.519Z,100704.97
2023-01-05T00:52:17.142Z,100694.59
2023-01-05T00:54:43.793Z,100709.03
2023-01-05T00:57:14.803Z,100713.50
2023-01-05T00:59:41.407Z,100704.97
2023-01-05T01:02:08.097Z,100710.16
2023-01-05T01:04:35.067Z,100711.69
2023-01-05T01:07:04.772Z,100697.91
2023-01-05T01:09:32.013Z,100720.63
2023-01-05T01:11:58.554Z,100708.28
2023-01-05T01:14:25.273Z,100707.19
2023-01-05T01:16:51.920Z,100696.53
2023-01-05T01:19:25.055Z,100697.56
2023-01-05T01:21:52.374Z,100699.94
2023-01-05T01:24:24.978Z,100707.56
2023-01-05T01:26:52.000Z,100710.13
2023-01-05T01:29:18.739Z,100711.31
2023-01-05T01:31:48.378Z,100716.31
2023-01-05T01:34:15.218Z,100715.25
2023-01-05T01:36:42.398Z,100714.38
2023-01-05T01:39:10.066Z,100725.03
2023-01-05T01:41:38.911Z,100723.59
2023-01-05T01:44:43.625Z,100730.31
2023-01-05T01:47:24.130Z,100726.88
2023-01-05T01:49:51.536Z,100757.22
2023-01-05T01:52:20.606Z,100752.84
2023-01-05T01:54:48.028Z,100747.38
2023-01-05T01:57:15.576Z,100759.13
2023-01-05T01:59:42.862Z,100744.81
2023-01-05T02:02:12.200Z,100747.75
2023-01-05T02:04:39.884Z,100746.69
2023-01-05T02:07:09.534Z,100754.50
2023-01-05T02:09:36.981Z,100752.41
2023-01-05T02:12:24.396Z,100766.44
2023-01-05T02:15:34.312Z,100755.34
2023-01-05T02:18:13.819Z,100743.47
2023-01-05T02:21:04.944Z,100757.94
2023-01-05T02:23:56.669Z,100751.16
2023-01-05T02:26:41.842Z,100750.53
2023-01-05T02:29:23.785Z,100748.19
2023-01-05T02:31:58.739Z,100751.19
2023-01-05T02:34:35.855Z,100753.47
2023-01-05T02:37:28.035Z,100756.34
2023-01-05T02:40:24.398Z,100760.06
2023-01-05T02:42:55.185Z,100764.25
2023-01-05T02:45:23.858Z,100756.16
2023-01-05T02:47:55.409Z,100762.16
2023-01-05T02:50:34.641Z,100755.16
2023-01-05T02:53:12.302Z,100762.59
2023-01-05T02:55:44.832Z,100755.44
2023-01-05T02:58:24.289Z,100744.84
2023-01-05T03:00:55.736Z,100755.97
2023-01-05T03:03:39.094Z,100754.69
2023-01-05T03:06:14.063Z,100744.50
2023-01-05T03:08:51.447Z,100761.88
2023-01-05T03:11:39.310Z,100755.84
2023-01-05T03:14:14.213Z,100760.06
2023-01-05T03:16:41.223Z,100768.00
2023-01-05T03:19:30.658Z,100755.28
2023-01-05T03:22:18.281Z,100762.50
2023-01-05T03:25:04.296Z,100767.16
2023-01-05T03:27:54.890Z,100762.22
2023-01-05T03:30:49.203Z,100775.03
2023-01-05T03:33:50.001Z,100777.25
2023-01-05T03:36:21.373Z,100758.66
2023-01-05T03:38:51.269Z,100753.66
2023-01-05T03:41:19.770Z,100771.22
2023-01-05T03:43:48.453Z,100763.63
2023-01-05T03:46:18.935Z,100770.81
2023-01-05T03:48:45.985Z,100774.44
2023-01-05T03:51:14.548Z,100781.84
2023-01-05T03:53:41.168Z,100777.41
2023-01-05T03:56:07.869Z,100774.53
2023-01-05T03:58:35.086Z,100780.28
2023-01-05T04:01:02.488Z,100783.09
2023-01-05T04:03:32.231Z,100793.22
2023-01-05T04:06:02.377Z,100795.28
2023-01-05T04:08:30.813Z,100789.38
2023-01-05T04:11:10.961Z,100802.09
2023-01-05T04:13:37.652Z,100798.56
2023-01-05T04:16:04.574Z,100791.34
2023-01-05T04:18:31.379Z,100795.81
2023-01-05T04:20:58.387Z,100790.91
2023-01-05T04:23:25.171Z,100800.41
2023-01-05T04:25:54.418Z,100803.47
2023-01-05T04:28:23.004Z,100796.09
2023-01-05T04:30:51.865Z,100794.22
2023-01-05T04:33:20.386Z,100796.28
2023-01-05T04:35:48.191Z,100787.88
2023-01-05T04:38:14.814Z,100790.19
2023-01-05T04:40:41.818Z,100790.56
2023-01-05T04:43:10.302Z,100806.97
2023-01-05T04:45:37.226Z,100800.13
2023-01-05T04:48:06.479Z,100800.41
2023-01-05T04:50:33.130Z,100804.34
2023-01-05T04:53:00.302Z,100805.13
2023-01-05T04:55:29.308Z,100816.88
2023-01-05T04:57:56.141Z,100817.06
2023-01-05T05:00:23.962Z,100810.38
2023-01-05T05:02:51.296Z,100811.03
2023-01-05T05:05:18.750Z,100801.88
2023-01-05T05:07:50.293Z,100808.41
2023-01-05T05:10:18.079Z,100811.03
2023-01-05T05:12:46.577Z,100822.72
2023-01-05T05:15:13.554Z,100821.25
2023-01-05T05:17:44.971Z,100826.53
2023-01-05T05:20:13.491Z,100826.53
2023-01-05T05:22:40.176Z,100836.22
2023-01-05T05:25:08.574Z,100840.28
2023-01-05T05:27:39.430Z,100834.06
2023-01-05T05:30:06.641Z,100841.72
2023-01-05T05:32:33.326Z,100843.53
2023-01-05T05:34:59.827Z,100851.78
2023-01-05T05:37:26.485Z,100852.41
2023-01-05T05:39:53.005Z,100855.28
2023-01-05T05:42:19.607Z,100860.88
2023-01-05T05:44:46.179Z,100859.47
2023-01-05T05:47:12.717Z,100861.97
2023-01-05T05:49:39.412Z,100877.59
2023-01-05T05:52:06.048Z,100869.38
2023-01-05T05:54:32.596Z,100874.34
2023-01-05T05:56:59.137Z,100882.13
2023-01-05T05:59:25.647Z,100889.25
2023-01-05T06:01:52.603Z,100886.75
2023-01-05T06:04:19.639Z,100892.75
2023-01-05T06:06:46.286Z,100895.16
2023-01-05T06:09:12.968Z,100897.69
2023-01-05T06:11:39.831Z,100908.78
2023-01-05T06:14:07.712Z,100897.88
2023-01-05T06:16:34.723Z,100904.56
2023-01-05T06:19:01.443Z,100912.81
2023-01-05T06:21:28.005Z,100906.28
2023-01-05T06:23:54.587Z,100912.72
2023-01-05T06:26:21.173Z,100917.63
2023-01-05T06:28:47.716Z,100910.22
2023-01-05T06:31:14.330Z,100920.00
2023-01-05T06:33:40.937Z,100912.81
2023-01-05T06:36:07.911Z,100918.22
2023-01-05T06:38:34.528Z,100922.03
2023-01-05T06:41:01.096Z,100926.50
2023-01-05T06:43:27.595Z,100932.19
2023-01-05T06:45:54.273Z,100931.63
2023-01-05T06:48:20.908Z,100936.25
2023-01-05T06:50:47.589Z,100937.00
2023-01-05T06:53:14.431Z,100932.81
2023-01-05T06:55:40.995Z,100943.16
2023-01-05T06:58:07.655Z,100943.16
2023-01-05T07:00:34.449Z,100943.91
2023-01-05T07:03:01.080Z,100940.00
2023-01-05T07:05:27.639Z,100937.47
2023-01-05T07:07:54.386Z,100940.34
2023-01-05T07:10:20.982Z,100955.44
2023-01-05T07:12:47.521Z,100961.03
2023-01-05T07:15:14.110Z,100961.41
2023-01-05T07:17:40.612Z,100963.25
2023-01-05T07:20:07.953Z,100960.44
2023-01-05T07:22:34.603Z,100960.19
2023-01-05T07:25:01.290Z,100963.41
2023-01-05T07:27:27.817Z,100971.56
2023-01-05T07:29:54.513Z,100974.03
2023-01-05T07:32:21.109Z,100962.22
2023-01-05T07:34:55.467Z,100969.84
2023-01-05T07:37:24.470Z,100973.75
2023-01-05T07:39:51.037Z,100979.94
2023-01-05T07:42:17.684Z,100976.31
2023-01-05T07:44:46.491Z,100982.03
2023-01-05T07:47:13.052Z,100989.47
2023-01-05T07:49:39.649Z,100993.47
2023-01-05T07:52:06.313Z,100999.13
2023-01-05T07:54:32.964Z,101004.44
2023-01-05T07:56:59.739Z,100999.13
2023-01-05T07:59:26.394Z,101003.31
2023-01-05T08:01:53.093Z,101008.16
2023-01-05T08:04:20.036Z,101020.13
2023-01-05T08:06:46.559Z,101018.06
2023-01-05T08:09:31.888Z,101013.69
2023-01-05T08:11:58.473Z,101017.59
2023-01-05T08:14:24.986Z,101016.47
2023-01-05T08:16:51.676Z,101021.91
2023-01-05T08:19:19.574Z,101023.41
2023-01-05T08:21:46.102Z,101026.00
2023-01-05T08:24:12.782Z,101027.38
2023-01-05T08:26:39.759Z,101025.72
2023-01-05T08:29:06.853Z,101022.72
2023-01-05T08:31:37.395Z,101025.56
2023-01-05T08:34:05.063Z,101028.84
2023-01-05T08:36:32.746Z,101034.19
2023-01-05T08:39:01.365Z,101039.53
2023-01-05T08:41:31.125Z,101039.56
2023-01-05T08:43:59.684Z,101044.31
2023-01-05T08:46:28.881Z,101050.09
2023-01-05T08:48:57.874Z,101058.34
2023-01-05T08:51:24.626Z,101062.56
2023-01-05T08:53:51.633Z,101053.53
2023-01-05T08:56:18.794Z,101055.75
2023-01-05T08:58:45.698Z,101056.97
2023-01-05T09:01:15.033Z,101050.00
2023-01-05T09:03:41.717Z,101055.13
2023-01-05T09:06:11.806Z,101066.25
2023-01-05T09:08:40.125Z,101072.81
2023-01-05T09:11:12.218Z,101071.03
2023-01-05T09:13:40.115Z,101070.09
2023-01-05T09:16:13.267Z,101078.38
2023-01-05T09:18:41.765Z,101091.06
2023-01-05T09:21:09.356Z,101092.41
2023-01-05T09:23:37.083Z,101083.94
2023-01-05T09:26:13.467Z,101098.69
2023-01-05T09:28:40.171Z,101092.13
2023-01-05T09:31:14.663Z,101103.75
2023-01-05T09:33:42.110Z,101098.13
2023-01-05T09:36:09.766Z,101095.94
2023-01-05T09:38:38.843Z,101114.34
2023-01-05T09:41:42.269Z,101109.63
2023-01-05T09:44:26.290Z,101113.19
2023-01-05T09:46:55.373Z,101108.88
2023-01-05T09:49:24.630Z,101122.19
2023-01-05T09:51:58.265Z,101125.34
2023-01-05T09:54:27.581Z,101129.16
2023-01-05T09:57:13.183Z,101138.19
2023-01-05T09:59:46.308Z,101135.34
2023-01-05T10:02:20.244Z,101143.16
2023-01-05T10:04:48.029Z,101142.25
2023-01-05T10:07:34.038Z,101143.16
2023-01-05T10:10:02.897Z,101139.44
2023-01-05T10:12:59.374Z,101151.09
2023-01-05T10:15:27.641Z,101145.97
2023-01-05T10:17:54.246Z,101148.59
2023-01-05T10:20:29.822Z,101147.66
2023-01-05T10:23:22.981Z,101150.25
2023-01-05T10:26:03.678Z,101154.50
2023-01-05T10:28:39.990Z,101154.22
2023-01-05T10:31:48.704Z,101165.34
2023-01-05T10:34:33.508Z,101153.50
2023-01-05T10:37:28.641Z,101158.31
2023-01-05T10:40:33.610Z,101157.41
2023-01-05T10:43:06.053Z,101159.56
2023-01-05T10:45:32.842Z,101157.88
2023-01-05T10:47:59.883Z,101161.78
2023-01-05T10:50:38.603Z,101157.97
2023-01-05T10:53:16.267Z,101163.50
2023-01-05T10:55:53.818Z,101163.63
2023-01-05T10:58:28.988Z,101177.97
2023-01-05T11:00:59.454Z,101177.44
2023-01-05T11:04:04.237Z,101171.66
2023-01-05T11:06:30.198Z,101164.47
2023-01-05T11:09:15.228Z,101163.38
2023-01-05T11:12:00.113Z,101176.13
2023-01-05T11:14:29.228Z,101167.16
2023-01-05T11:17:02.602Z,101178.59
2023-01-05T11:19:37.010Z,101173.75
2023-01-05T11:22:03.651Z,101159.09
2023-01-05T11:24:35.015Z,101162.47
2023-01-05T11:27:23.718Z,101159.88
2023-01-05T11:30:17.922Z,101159.81
2023-01-05T11:32:45.797Z,101163.09
2023-01-05T11:35:43.944Z,101172.44
2023-01-05T11:38:36.628Z,101177.09
2023-01-05T11:41:03.457Z,101180.19
2023-01-05T11:43:32.794Z,101166.38
2023-01-05T11:46:03.375Z,101165.22
2023-01-05T11:48:34.421Z,101173.09
2023-01-05T11:51:02.598Z,101171.78
2023-01-05T11:53:35.246Z,101168.94
2023-01-05T11:56:15.121Z,101165.16
2023-01-05T11:58:44.383Z,101168.56
2023-01-05T12:01:17.059Z,101174.28
2023-01-05T12:04:09.570Z,101174.91
2023-01-05T12:06:45.295Z,101153.47
2023-01-05T12:09:35.407Z,101164.88
2023-01-05T12:12:41.510Z,101169.06
2023-01-05T12:15:27.795Z,101174.94
2023-01-05T12:18:01.653Z,101180.16
2023-01-05T12:20:37.387Z,101185.00
2023-01-05T12:23:32.307Z,101174.91
2023-01-05T12:26:13.783Z,101180.91
2023-01-05T12:29:34.536Z,101169.31
2023-01-05T12:36:00.759Z,101193.66
2023-01-05T12:38:48.504Z,101201.00
2023-01-05T12:41:42.429Z,101194.69
2023-01-05T12:44:39.773Z,101200.97
2023-01-05T12:47:22.133Z,101196.78
2023-01-05T12:49:59.179Z,101192.00
2023-01-05T12:52:34.293Z,101190.81
2023-01-05T12:55:18.143Z,101197.19
2023-01-05T12:57:58.116Z,101195.25
2023-01-05T13:00:28.890Z,101190.78
2023-01-05T13:03:00.769Z,101196.84
2023-01-05T13:05:36.437Z,101195.81
2023-01-05T13:08:26.497Z,101197.78
2023-01-05T13:10:59.522Z,101187.66
2023-01-05T13:13:38.660Z,101199.41
2023-01-05T13:16:08.604Z,101194.00
2023-01-05T13:18:37.959Z,101195.63
2023-01-05T13:21:12.812Z,101198.44
2023-01-05T13:23:47.159Z,101196.16
2023-01-05T13:26:22.085Z,101181.56
2023-01-05T13:28:52.378Z,101191.88
2023-01-05T13:31:41.422Z,101197.16
2023-01-05T13:34:38.768Z,101196.81
2023-01-05T13:37:43.737Z,101204.75
2023-01-05T13:40:31.061Z,101195.44
2023-01-05T13:43:35.360Z,101206.72
2023-01-05T13:46:31.249Z,101203.19
2023-01-05T13:49:15.236Z,101203.81
2023-01-05T13:51:44.643Z,101205.72
2023-01-05T13:54:22.605Z,101210.03
2023-01-05T13:56:50.288Z,101199.91
2023-01-05T13:59:44.467Z,101204.66
2023-01-05T14:02:31.075Z,101204.13
2023-01-05T14:04:58.821Z,101199.22
2023-01-05T14:07:26.956Z,101203.75
2023-01-05T14:09:58.227Z,101212.75
2023-01-05T14:12:27.689Z,101214.47
2023-01-05T14:15:12.780Z,101217.53
2023-01-05T14:17:51.750Z,101206.84
2023-01-05T14:20:46.651Z,101205.91
2023-01-05T14:23:25.600Z,101206.75
2023-01-05T14:25:53.254Z,101212.16
2023-01-05T14:28:23.370Z,101208.38
2023-01-05T14:30:51.559Z,101221.97
2023-01-05T14:33:20.009Z,101217.75
2023-01-05T14:35:47.066Z,101216.53
2023-01-05T14:38:13.574Z,101217.16
2023-01-05T14:40:44.506Z,101218.47
2023-01-05T14:43:29.576Z,101213.31
2023-01-05T14:45:57.830Z,101216.47
2023-01-05T14:48:30.093Z,101209.91
2023-01-05T14:51:30.926Z,101217.72
2023-01-05T14:54:02.899Z,101226.38
2023-01-05T14:56:32.301Z,101225.88
2023-01-05T14:59:13.013Z,101227.22
2023-01-05T15:01:51.257Z,101233.78
2023-01-05T15:04:27.778Z,101227.56
2023-01-05T15:07:06.742Z,101234.72
2023-01-05T15:10:01.150Z,101230.31
2023-01-05T15:12:42.638Z,101229.41
2023-01-05T15:15:24.426Z,101233.09
2023-01-05T15:18:20.457Z,101236.84
2023-01-05T15:21:11.774Z,101229.13
2023-01-05T15:23:56.908Z,101220.84
2023-01-05T15:27:21.925Z,101225.13
2023-01-05T15:30:03.497Z,101222.94
2023-01-05T15:32:37.802Z,101212.19
2023-01-05T15:35:25.770Z,101218.94
2023-01-05T15:37:53.292Z,101214.38
2023-01-05T15:40:29.429Z,101219.97
2023-01-05T15:43:01.724Z,101215.91
2023-01-05T15:45:35.677Z,101206.28
2023-01-05T15:48:09.641Z,101210.56
2023-01-05T15:50:45.300Z,101218.84
2023-01-05T15:53:27.333Z,101211.88
2023-01-05T15:55:54.430Z,101222.06
2023-01-05T15:58:22.535Z,101225.97
2023-01-05T16:01:15.544Z,101222.19
2023-01-05T16:03:44.487Z,101223.16
2023-01-05T16:06:20.956Z,101223.16
2023-01-05T16:08:50.299Z,101214.88
2023-01-05T16:11:37.585Z,101216.09
2023-01-05T16:14:13.776Z,101222.66
2023-01-05T16:16:53.724Z,101220.97
2023-01-05T16:19:32.009Z,101214.66
2023-01-05T16:22:24.993Z,101218.63
2023-01-05T16:25:12.217Z,101223.72
2023-01-05T16:27:41.252Z,101230.25
2023-01-05T16:30:27.641Z,101227.88
2023-01-05T16:33:12.517Z,101241.19
2023-01-05T16:35:43.425Z,101231.41
2023-01-05T16:38:10.282Z,101240.63
2023-01-05T16:40:40.970Z,101231.25
2023-01-05T16:43:25.882Z,101223.78
2023-01-05T16:45:58.035Z,101226.47
2023-01-05T16:48:38.815Z,101223.78
2023-01-05T16:51:08.164Z,101221.34
2023-01-05T16:53:40.849Z,101222.41
2023-01-05T16:56:32.118Z,101225.34
2023-01-05T16:59:00.273Z,101214.19
2023-01-05T17:01:35.718Z,101211.94
2023-01-05T17:04:12.230Z,101211.16
2023-01-05T17:06:40.755Z,101208.00
2023-01-05T17:09:32.143Z,101202.28
2023-01-05T17:11:59.102Z,101200.75
2023-01-05T17:14:28.026Z,101193.84
2023-01-05T17:16:55.184Z,101195.16
2023-01-05T17:19:21.932Z,101185.34
2023-01-05T17:21:57.729Z,101183.75
2023-01-05T17:24:26.942Z,101190.78
2023-01-05T17:26:53.944Z,101189.34
2023-01-05T17:29:29.493Z,101189.56
2023-01-05T17:31:56.692Z,101187.44
2023-01-05T17:34:24.189Z,101183.84
2023-01-05T17:36:57.124Z,101185.56
2023-01-05T17:39:24.113Z,101185.59
2023-01-05T17:41:50.718Z,101188.13
2023-01-05T17:44:17.903Z,101184.25
2023-01-05T17:46:46.587Z,101190.31
2023-01-05T17:49:16.407Z,101190.31
2023-01-05T17:51:43.139Z,101184.16
2023-01-05T17:54:10.427Z,101184.72
2023-01-05T17:56:37.095Z,101188.53
2023-01-05T17:59:04.805Z,101184.91
2023-01-05T18:01:33.490Z,101187.28
2023-01-05T18:04:00.304Z,101196.19
2023-01-05T18:06:27.209Z,101195.94
2023-01-05T18:08:54.087Z,101199.28
2023-01-05T18:11:20.760Z,101200.88
2023-01-05T18:13:47.368Z,101199.53
2023-01-05T18:16:14.279Z,101202.75
2023-01-05T18:18:41.105Z,101198.41
2023-01-05T18:21:07.961Z,101190.44
2023-01-05T18:23:34.855Z,101187.84
2023-01-05T18:26:07.082Z,101184.81
2023-01-05T18:28:33.897Z,101179.22
2023-01-05T18:31:01.097Z,101178.53
2023-01-05T18:33:28.168Z,101180.44
2023-01-05T18:38:26.683Z,101186.34
2023-01-05T18:40:53.252Z,101178.47
2023-01-05T18:43:19.854Z,101177.03
2023-01-05T18:45:53.481Z,101173.03
2023-01-05T18:48:21.146Z,101167.59
2023-01-05T18:50:51.050Z,101162.75
2023-01-05T18:53:19.203Z,101160.69
2023-01-05T18:55:46.165Z,101166.19
2023-01-05T18:58:13.076Z,101159.34
2023-01-05T19:00:43.955Z,101153.63
2023-01-05T19:03:11.309Z,101158.19
2023-01-05T19:05:40.785Z,101159.81
2023-01-05T19:08:09.220Z,101153.72
2023-01-05T19:10:36.060Z,101151.44
2023-01-05T19:13:03.025Z,101154.88
2023-01-05T19:15:31.521Z,101157.72
2023-01-05T19:17:58.076Z,101146.94
2023-01-05T19:20:24.608Z,101157.59
2023-01-05T19:22:51.661Z,101157.03
2023-01-05T19:25:18.941Z,101160.28
2023-01-05T19:27:46.325Z,101152.56
2023-01-05T19:30:14.853Z,101141.34
2023-01-05T19:32:41.489Z,101142.47
2023-01-05T19:35:08.176Z,101140.69
2023-01-05T19:37:35.442Z,101134.38
2023-01-05T19:40:02.729Z,101147.16
2023-01-05T19:42:31.752Z,101145.25
2023-01-05T19:44:58.397Z,101142.09
2023-01-05T19:47:24.949Z,101147.50
2023-01-05T19:49:53.016Z,101149.75
2023-01-05T19:52:20.013Z,101140.75
2023-01-05T19:54:47.440Z,101145.66
2023-01-05T19:57:14.009Z,101135.75
2023-01-05T19:59:40.556Z,101136.47
2023-01-05T20:02:07.612Z,101135.59
2023-01-05T20:04:34.428Z,101129.00
2023-01-05T20:07:04.052Z,101127.75
2023-01-05T20:09:31.458Z,101123.97
2023-01-05T20:12:09.324Z,101131.28
2023-01-05T20:14:41.220Z,101125.31
2023-01-05T20:17:09.952Z,101134.84
2023-01-05T20:19:37.960Z,101123.88
2023-01-05T20:22:07.674Z,101125.81
2023-01-05T20:24:36.649Z,101129.56
2023-01-05T20:27:07.549Z,101133.47
2023-01-05T20:29:34.905Z,101133.06
2023-01-05T20:32:22.904Z,101129.84
2023-01-05T20:34:52.222Z,101126.59
2023-01-05T20:37:19.457Z,101125.31
2023-01-05T20:39:46.155Z,101127.22
2023-01-05T20:42:13.905Z,101126.09
2023-01-05T20:44:43.683Z,101131.16
2023-01-05T20:47:10.302Z,101128.47
2023-01-05T20:49:38.692Z,101125.50
2023-01-05T20:52:06.219Z,101127.34
2023-01-05T20:54:33.268Z,101124.25
2023-01-05T20:57:00.152Z,101128.53
2023-01-05T20:59:32.191Z,101129.97
2023-01-05T21:01:59.695Z,101133.19
2023-01-05T21:04:27.691Z,101134.03
2023-01-05T21:06:54.889Z,101135.56
2023-01-05T21:09:22.523Z,101129.75
2023-01-05T21:11:49.428Z,101132.13
2023-01-05T21:14:16.833Z,101134.88
2023-01-05T21:16:46.717Z,101130.66
2023-01-05T21:19:17.489Z,101135.09
2023-01-05T21:21:46.160Z,101141.44
2023-01-05T21:24:13.991Z,101140.88
2023-01-05T21:26:40.881Z,101133.28
2023-01-05T21:29:10.178Z,101131.75
2023-01-05T21:31:37.920Z,101129.06
2023-01-05T21:34:05.334Z,101131.50
2023-01-05T21:36:33.614Z,101135.19
2023-01-05T21:39:04.302Z,101149.28
2023-01-05T21:41:54.097Z,101150.69
2023-01-05T21:44:21.611Z,101147.56
2023-01-05T21:46:49.233Z,101156.41
2023-01-05T21:49:16.795Z,101151.25
2023-01-05T21:52:02.104Z,101147.72
2023-01-05T21:54:47.431Z,101149.53
2023-01-05T21:57:14.214Z,101145.81
2023-01-05T21:59:41.506Z,101142.59
2023-01-05T22:02:08.158Z,101146.19
2023-01-05T22:04:34.919Z,101150.38
2023-01-05T22:07:01.963Z,101148.41
2023-01-05T22:09:28.557Z,101143.56
2023-01-05T22:11:55.116Z,101143.97
2023-01-05T22:14:21.614Z,101142.22
2023-01-05T22:16:48.265Z,101138.16
2023-01-05T22:19:14.901Z,101135.00
2023-01-05T22:21:41.493Z,101127.69
2023-01-05T22:24:09.409Z,101125.59
2023-01-05T22:26:36.036Z,101116.75
2023-01-05T22:29:02.885Z,101112.00
2023-01-05T22:31:31.382Z,101104.50
2023-01-05T22:34:00.001Z,101102.81
2023-01-05T22:36:29.073Z,101104.59
2023-01-05T22:38:56.330Z,101095.84
2023-01-05T22:41:27.906Z,101090.44
2023-01-05T22:43:55.612Z,101088.34
2023-01-05T22:46:25.412Z,101084.25
2023-01-05T22:48:54.052Z,101083.13
2023-01-05T22:51:27.847Z,101085.59
2023-01-05T22:53:54.745Z,101093.56
2023-01-05T22:56:23.599Z,101085.13
2023-01-05T22:58:50.264Z,101086.25
2023-01-05T23:01:22.568Z,101084.19
2023-01-05T23:03:50.310Z,101085.50
2023-01-05T23:06:17.637Z,101087.22
2023-01-05T23:08:45.383Z,101076.06
2023-01-05T23:11:34.344Z,101077.34
2023-01-05T23:14:03.183Z,101076.75
2023-01-05T23:16:30.127Z,101077.31
2023-01-05T23:18:57.044Z,101080.72
2023-01-05T23:21:25.720Z,101076.81
2023-01-05T23:23:54.159Z,101068.53
2023-01-05T23:26:22.008Z,101076.81
2023-01-05T23:28:48.697Z,101080.59
2023-01-05T23:31:16.333Z,101077.97
2023-01-05T23:33:44.030Z,101071.69
2023-01-05T23:36:12.497Z,101069.72
2023-01-05T23:38:39.778Z,101072.22
2023-01-05T23:41:08.333Z,101059.50
2023-01-05T23:43:38.372Z,101057.91
2023-01-05T23:46:07.341Z,101057.97
2023-01-05T23:48:35.966Z,101061.72
2023-01-05T23:51:04.311Z,101062.50
2023-01-05T23:53:31.193Z,101054.63
2023-01-05T23:56:08.521Z,101057.13
2023-01-05T23:58:35.218Z,101060.50
